MMCS/CJS METAR and TAF weather

Enter ICAO airport designator
Station Type Date Time Source
MMCS METAR 2021/01/16 02:40 UTC NOAA

MMCS 160240Z 22005KT 10SM SKC 11/M15 A3016 RMK SLP190 52008 908


Station Type Date Time Source
MMCS Decoded METAR 2021/01/16 02:40 UTC NOAA

Ciudad Juarez International , Mexico (MMCS) 31-38N 106-26W
Jan 15, 2021 - 09:40 PM EST / 2021.01.16 0240 UTC
Wind: from the SW (220 degrees) at 6 MPH (5 KT):0
Visibility: 10 mile(s):0
Sky conditions: clear
Temperature: 51 F (11 C)
Dew Point: 5 F (-15 C)
Relative Humidity: 14%
Pressure (altimeter): 30.16 in. Hg (1021 hPa)
Pressure tendency: 0.02 inches (0.8 hPa) higher than three hours ago
ob: MMCS 160240Z 22005KT 10SM SKC 11/M15 A3016 RMK SLP190 52008 908
cycle: 2

Station Type Date Time Source
MMCS TAF 2021/01/16 06:13 UTC NOAA

TAF MMCS 160313Z 1606/1706 16005KT P6SM SKC
FM161600 13010KT P6SM SKC
FM162200 33015KT P6SM SKC
FM170200 02005KT P6SM SKC

Example: see airport list